KMJX

Ocean County Airport

Toms River, New Jersey, USA
METAR KMJX 160556Z AUTO 25006KT 10SM CLR 23/21 A3002 RMK AO2 SLP168 T02330206 10261 20222 50002
Observed Flight Rules
Aug-16 @ 05:56 UTC (19 minutes ago) Visual Flight Rules
Wind Visibility Clouds
250° at 6 knots 10 miles
  • Clear skies
Temperatures Readings
Current 23°C / 73°F
Dewpoint 21°C / 70°F
Humidity 89%
Altimeter 30.02" Hg
Pressure 1016.8 hPa
Elevation 25
METAR KMJX 160556Z AUTO 25006KT 10SM CLR 23/21 A3002 RMK AO2 SLP168 T02330206 10261 20222 50002
Observed Flight Rules
Aug-16 @ 05:56 UTC
(19 minutes ago)
VFR
Wind Visibility
250° at 6 knots 10 miles
Clouds
  • Clear skies
Temperature Dewpoint
23°C / 73°F 21°C / 70°F
Humidity Altimeter Pressure
89% 30.02" Hg 1016.8 hPa